Du har inga inställningar för hoppväder.nu

Hoppväder.nu

Senast uppdaterat 07:29

UTC-tid

2020-01-29 kl. 06:29


Sol och måne

Solen går upp 8:16 och går ner 16:10 (beräknade cirkatider)
Nästa fullmåne blir om 11 dagar (2020-02-09)

METAR

ESOE (Örebro)
(9 minuter sedan)
ESOE 290620Z 11003KT 5000 BR BKN006 03/02 Q0987=



ESOK (Karlstad)
(9 minuter sedan)
ESOK 290620Z 10005KT 5000 BR VV002 02/02 Q0985=



ESGR (Skövde)
(9 minuter sedan)
ESGR 290620Z AUTO 16007KT 9999 BKN023/// OVC047/// 02/02 Q0986=



ESSD (Borlänge)
(9 minuter sedan)
ESSD 290620Z AUTO 09005KT 3000 -SN VV010 00/00 Q0987=



ESOW (Västerås)
(9 minuter sedan)
ESOW 290620Z AUTO 11006KT 7000 BR OVC005/// 03/02 Q0988=



TAF

ESOE (Örebro)
(59 minuter sedan)
ESOE 290530Z 2906/2915 09005KT 5000 OVC005 TEMPO 2906/2908 1000 BR SCT006 BKN015 BECMG 2908/2910 BKN010 BECMG 2912/2914 BKN015=



ESOK (Karlstad)
(59 minuter sedan)
ESOK 290530Z 2906/2915 10007KT 9999 OVC002 BECMG 2906/2908 BKN010 TEMPO 2908/2915 2500 BR BKN006=



ESGR (Skövde)
ESGR



ESSD (Borlänge)
(-1 minuter sedan)
ESSD 290630Z 2907/2915 09007KT 5000 -SN OVC007 TEMPO 2907/2910 1200 SN VV003 PROB40 2910/2915 0300 FG VV002=



ESOW (Västerås)
(-1 minuter sedan)
ESOW 290630Z 2907/2915 10008KT 5000 SCT006 OVC010 TEMPO 2907/2910 1200 BR OVC003 TEMPO 2910/2915 BKN007=





Kodnycklar till TAF och METAR






LHP

(Örebro är område G2a i Södra delen)







Spotting

Hur fungerar spotthjälpen och Vindkartan?

Markvind är ca 0 m/s.
Vind på 600 m ca 0 m/s.
Vind på 1500 m ca 0 m/s.
Vind på 3000 m ca 0 m/s.
FXB flyger ca 36 m/s över marken på finalen.
Du driver ca 0 m bakåt i frifall. (0 m)
Lämplig spot är 8 sekunder eller 288 m innan gropen.
(-8s eller -288 m)
För små grupper eller ensamhoppare bör man vänta 4-6 sekunder mellan grupperna.
För större grupper bör man vänta 8-10 sekunder mellan grupperna.


Vindkartan

Senast uppdaterad 07:29




All data kommer från LFV.se